Terminal Aerodrome Forecast
Issued by NWS Jackson, MS

Home | Current Version | Previous Version | Text Only | Print | Product List | Glossary On
Versions: 1 2 3 4 5 6 7 8 9 10 11 12 13 14 15 16 17 18 19 20 21 22 23 24 25 26 27
000
FTUS44 KJAN 291720
TAFGLH
TAF
KGLH 291720Z 2918/3018 28005KT P6SM SCT250
     FM300000 30006KT P6SM BKN250
     FM300700 04002KT 4SM BR BKN250
     FM301500 04004KT P6SM FEW250=

USA.gov is the U.S. government's official web portal to all federal, state and local government web resources and services.